Impacts TAF Board
For situational awareness. Not to be used for flight planning purposes.
IDs:

KSLC - Salt Lake City Intl, UT, US

Issued at 2343 UTC 15 Oct 2018
Updated at 0130 UTC 16 Oct 2018
Potential Impact None Slight Moderate High
Time0054Z 16/02Z 16/03Z 16/04Z 16/05Z 16/06Z 16/07Z 16/08Z 16/09Z 16/10Z 16/11Z 16/12Z 16/13Z 16/14Z>>
Type OBS PRVL PRVL PRVL PRVL PRVL PRVL PRVL PRVL PRVL PRVL PRVL PRVL PRVL
VIS 10 >6 >6 >6 >6 >6 >6 >6 >6 >6 >6 >6 >6 >6
CIG -- -- -- -- -- -- -- -- -- -- -- -- -- --
Cover FEW SKC SKC SKC SKC SKC SKC SKC SKC SKC SKC SKC SKC SKC
FltCat VFR VFR VFR VFR VFR VFR VFR VFR VFR VFR VFR VFR VFR VFR
WX -- -- -- -- -- -- -- -- -- -- -- -- -- --
WDir 350 320 150 150 150 150 150 150 150 150 150 150 150 150
WSpd 5 11 5 5 5 5 5 5 5 5 5 5 5 5
WGst -- -- -- -- -- -- -- -- -- -- -- -- -- --
Raw TAF
KSLC 152343Z 1600/1706 32011KT P6SM SKC
  FM160300 15005KT P6SM SKC
  FM161500 32005KT P6SM SKC
  FM161800 33012KT P6SM SKC
  FM170300 15004KT P6SM SKC


Raw METAR
KSLC 160054Z 35005KT 10SM FEW200 07/M04 A3035 RMK AO2 SLP283 T00721044
KSLC 152354Z 32010KT 10SM FEW200 08/M04 A3035 RMK AO2 SLP280 T00831044 10094 20061 56010
KSLC 152254Z 31011KT 10SM FEW200 09/M06 A3036 RMK AO2 SLP280 T00891056

METAR Board
Radar Display
Forecast Discussion
For situational awareness. Not to be used for flight planning purposes.